createdAt,value
2018-01-22T00:01:25.980Z,101350.21
2018-01-22T00:03:54.812Z,101330.20
2018-01-22T00:06:23.542Z,101321.34
2018-01-22T00:08:52.417Z,101325.08
2018-01-22T00:11:21.151Z,101321.95
2018-01-22T00:13:50.185Z,101322.27
2018-01-22T00:16:18.896Z,101316.28
2018-01-22T00:19:46.712Z,101319.21
2018-01-22T00:22:16.523Z,101312.04
2018-01-22T00:24:45.340Z,101311.12
2018-01-22T00:27:14.261Z,101302.98
2018-01-22T00:29:42.984Z,101301.66
2018-01-22T00:32:11.724Z,101309.62
2018-01-22T00:34:40.787Z,101309.42
2018-01-22T00:37:11.050Z,101308.27
2018-01-22T00:39:40.159Z,101300.69
2018-01-22T00:42:09.040Z,101290.94
2018-01-22T00:44:37.781Z,101281.00
2018-01-22T00:47:06.612Z,101290.13
2018-01-22T00:49:35.302Z,101284.46
2018-01-22T00:52:04.189Z,101283.39
2018-01-22T00:54:32.949Z,101287.47
2018-01-22T00:57:01.829Z,101280.38
2018-01-22T00:59:30.628Z,101277.38
2018-01-22T01:01:59.544Z,101278.43
2018-01-22T01:04:28.437Z,101269.78
2018-01-22T01:06:57.191Z,101257.66
2018-01-22T01:09:25.992Z,101251.95
2018-01-22T01:11:54.544Z,101253.63
2018-01-22T01:14:23.363Z,101242.92
2018-01-22T01:16:51.872Z,101245.72
2018-01-22T01:19:20.936Z,101245.20
2018-01-22T01:21:49.665Z,101252.48
2018-01-22T01:24:18.507Z,101243.69
2018-01-22T01:26:47.224Z,101251.67
2018-01-22T01:29:16.072Z,101246.82
2018-01-22T01:31:44.796Z,101248.36
2018-01-22T01:34:13.664Z,101240.87
2018-01-22T01:36:42.757Z,101241.88
2018-01-22T01:39:11.453Z,101234.20
2018-01-22T01:41:40.357Z,101229.44
2018-01-22T01:44:09.213Z,101218.95
2018-01-22T01:46:37.938Z,101229.25
2018-01-22T01:49:06.908Z,101216.77
2018-01-22T01:51:35.684Z,101217.09
2018-01-22T01:54:04.369Z,101209.81
2018-01-22T01:56:33.497Z,101200.38
2018-01-22T01:59:02.017Z,101192.36
2018-01-22T02:01:30.868Z,101184.61
2018-01-22T02:03:59.608Z,101186.41
2018-01-22T02:06:28.528Z,101175.47
2018-01-22T02:08:58.364Z,101174.56
2018-01-22T02:11:26.897Z,101171.53
2018-01-22T02:13:55.528Z,101166.08
2018-01-22T02:16:24.244Z,101158.80
2018-01-22T02:18:53.060Z,101158.27
2018-01-22T02:21:21.699Z,101152.07
2018-01-22T02:23:50.487Z,101146.23
2018-01-22T02:26:19.186Z,101144.67
2018-01-22T02:28:47.856Z,101135.67
2018-01-22T02:31:16.750Z,101136.38
2018-01-22T02:33:45.596Z,101135.55
2018-01-22T02:36:14.132Z,101123.56
2018-01-22T02:38:42.831Z,101124.98
2018-01-22T02:41:11.517Z,101126.03
2018-01-22T02:43:40.330Z,101130.15
2018-01-22T02:46:11.921Z,101116.28
2018-01-22T02:48:40.772Z,101122.04
2018-01-22T02:51:09.398Z,101119.73
2018-01-22T02:53:38.006Z,101113.80
2018-01-22T02:56:06.715Z,101117.37
2018-01-22T02:58:35.516Z,101107.16
2018-01-22T03:01:04.240Z,101114.56
2018-01-22T03:03:33.113Z,101103.86
2018-01-22T03:06:01.904Z,101105.75
2018-01-22T03:08:30.587Z,101101.30
2018-01-22T03:10:59.125Z,101096.98
2018-01-22T03:13:27.740Z,101100.39
2018-01-22T03:15:56.463Z,101097.91
2018-01-22T03:18:25.189Z,101106.39
2018-01-22T03:20:54.033Z,101101.70
2018-01-22T03:23:22.912Z,101096.42
2018-01-22T03:25:52.040Z,101101.06
2018-01-22T03:28:20.924Z,101094.63
2018-01-22T03:30:49.691Z,101099.58
2018-01-22T03:33:18.570Z,101098.98
2018-01-22T03:35:47.220Z,101098.33
2018-01-22T03:38:15.865Z,101096.46
2018-01-22T03:40:44.612Z,101093.77
2018-01-22T03:43:13.389Z,101096.05
2018-01-22T03:45:41.931Z,101088.50
2018-01-22T03:48:10.591Z,101082.53
2018-01-22T03:50:39.280Z,101072.09
2018-01-22T03:53:07.973Z,101071.42
2018-01-22T03:55:36.857Z,101067.38
2018-01-22T03:58:05.713Z,101068.84
2018-01-22T04:00:34.668Z,101069.59
2018-01-22T04:03:03.578Z,101070.91
2018-01-22T04:05:32.280Z,101065.55
2018-01-22T04:08:01.073Z,101066.38
2018-01-22T04:10:29.804Z,101069.28
2018-01-22T04:12:58.683Z,101068.11
2018-01-22T04:15:27.369Z,101066.31
2018-01-22T04:17:56.080Z,101056.83
2018-01-22T04:20:24.945Z,101047.66
2018-01-22T04:22:53.817Z,101044.80
2018-01-22T04:25:22.745Z,101033.08
2018-01-22T04:27:52.004Z,101024.22
2018-01-22T04:30:20.540Z,101017.13
2018-01-22T04:32:49.152Z,101010.84
2018-01-22T04:35:17.840Z,101012.45
2018-01-22T04:37:46.539Z,100999.25
2018-01-22T04:40:15.204Z,100995.83
2018-01-22T04:42:44.004Z,100988.23
2018-01-22T04:45:12.872Z,100979.55
2018-01-22T04:47:41.606Z,100976.78
2018-01-22T04:50:10.506Z,100978.12
2018-01-22T04:52:39.205Z,100973.50
2018-01-22T04:55:08.101Z,100974.75
2018-01-22T04:57:36.754Z,100966.20
2018-01-22T05:03:19.749Z,100967.77
2018-01-22T05:05:48.322Z,100959.16
2018-01-22T05:08:16.842Z,100957.73
2018-01-22T05:10:45.497Z,100951.17
2018-01-22T05:13:14.275Z,100946.57
2018-01-22T05:15:43.777Z,100939.39
2018-01-22T05:18:12.469Z,100936.69
2018-01-22T05:20:41.252Z,100934.83
2018-01-22T05:23:09.920Z,100939.52
2018-01-22T05:25:38.569Z,100928.91
2018-01-22T05:28:07.142Z,100922.80
2018-01-22T05:30:35.894Z,100926.22
2018-01-22T05:33:04.640Z,100932.61
2018-01-22T05:35:33.374Z,100928.13
2018-01-22T05:38:02.033Z,100924.13
2018-01-22T05:40:30.716Z,100922.43
2018-01-22T05:42:59.372Z,100937.69
2018-01-22T05:45:27.915Z,100942.91
2018-01-22T05:47:56.664Z,100944.04
2018-01-22T05:50:25.287Z,100947.42
2018-01-22T05:52:54.090Z,100949.56
2018-01-22T05:55:22.838Z,100940.34
2018-01-22T05:57:52.017Z,100936.14
2018-01-22T06:00:21.646Z,100929.86
2018-01-22T06:02:50.244Z,100928.83
2018-01-22T06:05:18.844Z,100918.06
2018-01-22T06:07:50.838Z,100919.53
2018-01-22T06:10:19.870Z,100910.97
2018-01-22T06:12:48.421Z,100909.16
2018-01-22T06:15:17.168Z,100907.97
2018-01-22T06:17:46.160Z,100899.20
2018-01-22T06:20:14.820Z,100899.70
2018-01-22T06:22:43.437Z,100890.43
2018-01-22T06:25:12.448Z,100896.12
2018-01-22T06:27:41.004Z,100887.25
2018-01-22T06:30:09.741Z,100873.83
2018-01-22T06:32:38.372Z,100872.22
2018-01-22T06:35:07.162Z,100865.71
2018-01-22T06:37:36.159Z,100859.09
2018-01-22T06:40:04.760Z,100850.06
2018-01-22T06:42:33.475Z,100850.75
2018-01-22T06:45:02.013Z,100839.00
2018-01-22T06:47:30.758Z,100835.39
2018-01-22T06:49:59.714Z,100846.93
2018-01-22T06:52:28.455Z,100830.64
2018-01-22T06:54:57.071Z,100828.70
2018-01-22T06:57:25.589Z,100834.81
2018-01-22T06:59:54.160Z,100833.20
2018-01-22T07:02:22.716Z,100840.92
2018-01-22T07:04:51.329Z,100842.39
2018-01-22T07:07:20.303Z,100843.22
2018-01-22T07:09:48.880Z,100843.80
2018-01-22T07:12:17.429Z,100849.49
2018-01-22T07:14:46.366Z,100852.19
2018-01-22T07:17:14.946Z,100857.74
2018-01-22T07:19:43.432Z,100866.26
2018-01-22T07:22:12.185Z,100867.77
2018-01-22T07:24:40.876Z,100881.92
2018-01-22T07:27:09.492Z,100874.20
2018-01-22T07:29:38.185Z,100874.97
2018-01-22T07:32:07.145Z,100885.30
2018-01-22T07:34:35.935Z,100890.22
2018-01-22T07:37:04.657Z,100885.40
2018-01-22T07:39:33.176Z,100883.12
2018-01-22T07:42:02.069Z,100877.37
2018-01-22T07:44:30.973Z,100884.10
2018-01-22T07:46:59.789Z,100882.44
2018-01-22T07:49:28.249Z,100882.08
2018-01-22T07:51:56.829Z,100870.97
2018-01-22T07:54:26.289Z,100866.41
2018-01-22T07:56:55.702Z,100866.30
2018-01-22T07:59:24.515Z,100862.11
2018-01-22T08:01:53.533Z,100861.56
2018-01-22T08:04:23.608Z,100853.42
2018-01-22T08:06:52.527Z,100850.20
2018-01-22T08:09:21.168Z,100855.52
2018-01-22T08:11:49.733Z,100858.15
2018-01-22T08:14:18.280Z,100852.75
2018-01-22T08:16:47.050Z,100852.66
2018-01-22T08:19:15.617Z,100851.48
2018-01-22T08:21:44.149Z,100858.21
2018-01-22T08:24:12.645Z,100849.13
2018-01-22T08:26:41.320Z,100852.39
2018-01-22T08:29:10.460Z,100847.44
2018-01-22T08:31:39.200Z,100843.81
2018-01-22T08:34:08.875Z,100839.48
2018-01-22T08:36:37.572Z,100822.75
2018-01-22T08:39:06.520Z,100827.28
2018-01-22T08:41:35.455Z,100820.75
2018-01-22T08:44:04.442Z,100815.02
2018-01-22T08:46:33.496Z,100816.09
2018-01-22T08:49:03.169Z,100818.55
2018-01-22T08:51:33.353Z,100824.23
2018-01-22T08:54:02.074Z,100824.95
2018-01-22T08:56:31.214Z,100818.88
2018-01-22T08:58:59.912Z,100814.77
2018-01-22T09:01:28.414Z,100814.84
2018-01-22T09:03:57.023Z,100815.03
2018-01-22T09:06:25.676Z,100806.34
2018-01-22T09:08:54.425Z,100804.17
2018-01-22T09:11:23.189Z,100809.69
2018-01-22T09:13:52.180Z,100809.49
2018-01-22T09:16:27.399Z,100811.95
2018-01-22T09:18:56.143Z,100806.48
2018-01-22T09:21:26.033Z,100804.24
2018-01-22T09:23:54.579Z,100806.25
2018-01-22T09:26:23.101Z,100811.49
2018-01-22T09:28:51.675Z,100809.27
2018-01-22T09:31:20.221Z,100810.15
2018-01-22T09:33:48.745Z,100809.22
2018-01-22T09:36:18.480Z,100804.17
2018-01-22T09:38:47.237Z,100798.91
2018-01-22T09:41:16.020Z,100795.47
2018-01-22T09:43:44.792Z,100791.91
2018-01-22T09:46:13.595Z,100788.45
2018-01-22T09:48:42.629Z,100787.45
2018-01-22T09:51:11.454Z,100795.58
2018-01-22T09:53:40.189Z,100788.97
2018-01-22T09:56:08.847Z,100788.17
2018-01-22T09:58:37.426Z,100787.05
2018-01-22T10:01:06.613Z,100787.24
2018-01-22T10:03:35.348Z,100786.22
2018-01-22T10:06:03.985Z,100787.23
2018-01-22T10:08:33.495Z,100772.02
2018-01-22T10:11:02.228Z,100765.56
2018-01-22T10:13:30.854Z,100767.16
2018-01-22T10:15:59.560Z,100773.22
2018-01-22T10:18:28.129Z,100762.22
2018-01-22T10:20:56.729Z,100760.34
2018-01-22T10:23:25.557Z,100773.92
2018-01-22T10:25:54.474Z,100759.17
2018-01-22T10:28:23.454Z,100774.00
2018-01-22T10:30:52.270Z,100766.23
2018-01-22T10:33:21.173Z,100771.12
2018-01-22T10:35:50.205Z,100768.64
2018-01-22T10:38:19.371Z,100765.52
2018-01-22T10:40:48.608Z,100761.12
2018-01-22T10:43:17.223Z,100754.59
2018-01-22T10:45:46.035Z,100748.84
2018-01-22T10:48:14.616Z,100748.16
2018-01-22T10:50:43.397Z,100740.66
2018-01-22T10:53:12.231Z,100747.31
2018-01-22T10:55:41.024Z,100738.17
2018-01-22T10:58:09.574Z,100740.67
2018-01-22T11:00:38.348Z,100730.19
2018-01-22T11:03:07.011Z,100716.52
2018-01-22T11:05:35.846Z,100718.70
2018-01-22T11:08:04.652Z,100705.00
2018-01-22T11:10:33.326Z,100698.61
2018-01-22T11:13:01.780Z,100687.27
2018-01-22T11:15:34.859Z,100682.00
2018-01-22T11:18:03.483Z,100679.67
2018-01-22T11:20:32.446Z,100674.34
2018-01-22T11:23:01.336Z,100683.40
2018-01-22T11:25:29.829Z,100670.84
2018-01-22T11:27:58.472Z,100671.23
2018-01-22T11:30:27.340Z,100662.81
2018-01-22T11:32:59.346Z,100660.42
2018-01-22T11:35:28.609Z,100658.17
2018-01-22T11:37:58.748Z,100649.54
2018-01-22T11:40:27.447Z,100645.14
2018-01-22T11:42:56.224Z,100649.00
2018-01-22T11:45:25.360Z,100649.12
2018-01-22T11:47:54.261Z,100638.88
2018-01-22T11:50:23.174Z,100639.91
2018-01-22T11:52:52.737Z,100623.56
2018-01-22T11:55:21.406Z,100628.16
2018-01-22T11:57:50.098Z,100618.56
2018-01-22T12:00:18.707Z,100615.41
2018-01-22T12:02:47.582Z,100627.36
2018-01-22T12:05:16.615Z,100621.33
2018-01-22T12:07:45.443Z,100620.77
2018-01-22T12:10:14.504Z,100623.70
2018-01-22T12:12:42.984Z,100614.70
2018-01-22T12:15:12.755Z,100610.29
2018-01-22T12:17:42.042Z,100617.33
2018-01-22T12:20:10.643Z,100622.33
2018-01-22T12:22:39.330Z,100612.67
2018-01-22T12:25:07.839Z,100607.40
2018-01-22T12:27:36.755Z,100599.61
2018-01-22T12:30:05.498Z,100601.08
2018-01-22T12:32:34.038Z,100595.96
2018-01-22T12:35:02.735Z,100595.78
2018-01-22T12:37:31.786Z,100587.92
2018-01-22T12:40:00.935Z,100585.10
2018-01-22T12:42:29.810Z,100575.56
2018-01-22T12:44:58.585Z,100565.86
2018-01-22T12:47:27.625Z,100562.56
2018-01-22T12:49:56.500Z,100556.27
2018-01-22T12:52:25.168Z,100551.79
2018-01-22T12:54:53.980Z,100544.64
2018-01-22T12:57:22.571Z,100540.34
2018-01-22T12:59:51.188Z,100549.84
2018-01-22T13:02:20.520Z,100538.89
2018-01-22T13:04:49.302Z,100540.72
2018-01-22T13:07:18.609Z,100536.18
2018-01-22T13:09:47.353Z,100529.52
2018-01-22T13:12:15.962Z,100532.75
2018-01-22T13:14:44.757Z,100536.66
2018-01-22T13:17:13.693Z,100533.97
2018-01-22T13:19:42.228Z,100527.88
2018-01-22T13:22:10.883Z,100530.52
2018-01-22T13:24:39.777Z,100520.88
2018-01-22T13:27:08.760Z,100517.84
2018-01-22T13:29:37.373Z,100515.53
2018-01-22T13:32:06.178Z,100512.61
2018-01-22T13:34:34.716Z,100510.52
2018-01-22T13:37:03.535Z,100504.61
2018-01-22T13:39:32.304Z,100499.86
2018-01-22T13:42:01.004Z,100494.95
2018-01-22T13:44:29.611Z,100486.50
2018-01-22T13:46:58.453Z,100490.46
2018-01-22T13:49:27.721Z,100488.84
2018-01-22T13:51:56.986Z,100494.52
2018-01-22T13:54:25.704Z,100487.38
2018-01-22T13:56:54.393Z,100493.07
2018-01-22T13:59:22.999Z,100490.86
2018-01-22T14:01:52.052Z,100490.63
2018-01-22T14:04:23.776Z,100495.42
2018-01-22T14:06:53.812Z,100501.52
2018-01-22T14:09:22.419Z,100507.52
2018-01-22T14:11:51.043Z,100502.70
2018-01-22T14:14:19.544Z,100505.60
2018-01-22T14:16:48.665Z,100501.28
2018-01-22T14:19:17.173Z,100491.78
2018-01-22T14:21:45.807Z,100501.31
2018-01-22T14:24:14.497Z,100497.67
2018-01-22T14:26:43.735Z,100509.73
2018-01-22T14:29:12.471Z,100508.81
2018-01-22T14:31:41.206Z,100506.31
2018-01-22T14:34:09.864Z,100520.05
2018-01-22T14:36:38.669Z,100520.73
2018-01-22T14:39:07.296Z,100518.86
2018-01-22T14:41:35.998Z,100516.19
2018-01-22T14:44:04.704Z,100518.66
2018-01-22T14:46:33.501Z,100511.95
2018-01-22T14:49:02.019Z,100516.04
2018-01-22T14:51:30.765Z,100518.81
2018-01-22T14:53:59.760Z,100519.20
2018-01-22T14:56:30.696Z,100523.33
2018-01-22T14:58:59.574Z,100526.26
2018-01-22T15:01:28.512Z,100531.76
2018-01-22T15:03:57.108Z,100532.10
2018-01-22T15:06:25.679Z,100525.78
2018-01-22T15:08:54.300Z,100526.17
2018-01-22T15:11:23.050Z,100520.77
2018-01-22T15:13:51.886Z,100517.67
2018-01-22T15:16:20.532Z,100510.83
2018-01-22T15:18:49.028Z,100525.08
2018-01-22T15:21:17.635Z,100518.92
2018-01-22T15:23:46.158Z,100528.76
2018-01-22T15:26:14.809Z,100525.80
2018-01-22T15:28:43.616Z,100528.72
2018-01-22T15:31:13.749Z,100527.38
2018-01-22T15:33:42.374Z,100523.31
2018-01-22T15:36:10.956Z,100519.25
2018-01-22T15:38:39.800Z,100510.82
2018-01-22T15:41:09.213Z,100511.05
2018-01-22T15:43:38.616Z,100514.02
2018-01-22T15:46:08.360Z,100523.81
2018-01-22T15:48:37.180Z,100523.36
2018-01-22T15:51:05.821Z,100533.38
2018-01-22T15:53:34.931Z,100534.31
2018-01-22T15:56:03.884Z,100542.91
2018-01-22T15:58:32.752Z,100543.47
2018-01-22T16:01:02.620Z,100549.97
2018-01-22T16:03:31.818Z,100549.33
2018-01-22T16:06:01.349Z,100565.95
2018-01-22T16:08:29.931Z,100569.25
2018-01-22T16:10:58.936Z,100584.41
2018-01-22T16:13:27.654Z,100581.03
2018-01-22T16:15:56.390Z,100578.08
2018-01-22T16:18:25.300Z,100574.20
2018-01-22T16:20:54.040Z,100566.44
2018-01-22T16:23:22.651Z,100564.75
2018-01-22T16:25:51.468Z,100567.34
2018-01-22T16:28:20.184Z,100565.98
2018-01-22T16:30:48.897Z,100568.53
2018-01-22T16:33:17.747Z,100576.69
2018-01-22T16:35:46.477Z,100589.17
2018-01-22T16:38:15.256Z,100592.77
2018-01-22T16:40:44.360Z,100592.33
2018-01-22T16:43:13.115Z,100586.35
2018-01-22T16:45:41.793Z,100597.34
2018-01-22T16:48:10.315Z,100603.30
2018-01-22T16:50:39.277Z,100604.36
2018-01-22T16:53:07.873Z,100606.56
2018-01-22T16:55:36.403Z,100608.33
2018-01-22T16:58:05.042Z,100606.06
2018-01-22T17:00:33.600Z,100608.68
2018-01-22T17:03:02.686Z,100606.92
2018-01-22T17:05:31.370Z,100609.16
2018-01-22T17:08:00.075Z,100613.19
2018-01-22T17:10:28.948Z,100610.84
2018-01-22T17:12:57.777Z,100623.61
2018-01-22T17:15:26.371Z,100623.12
2018-01-22T17:17:54.924Z,100622.16
2018-01-22T17:20:29.943Z,100621.22
2018-01-22T17:22:58.543Z,100618.00
2018-01-22T17:25:27.174Z,100621.48
2018-01-22T17:27:56.721Z,100619.34
2018-01-22T17:30:26.124Z,100615.25
2018-01-22T17:32:54.848Z,100621.20
2018-01-22T17:35:23.788Z,100612.34
2018-01-22T17:37:52.957Z,100620.95
2018-01-22T17:40:22.002Z,100619.48
2018-01-22T17:42:50.536Z,100620.19
2018-01-22T17:45:19.813Z,100631.08
2018-01-22T17:47:48.955Z,100633.23
2018-01-22T17:50:18.353Z,100631.02
2018-01-22T17:52:47.025Z,100634.23
2018-01-22T17:55:15.748Z,100638.73
2018-01-22T17:57:44.476Z,100650.24
2018-01-22T18:00:13.169Z,100652.95
2018-01-22T18:02:42.116Z,100659.09
2018-01-22T18:05:20.937Z,100667.95
2018-01-22T18:07:49.711Z,100678.31
2018-01-22T18:10:21.559Z,100679.12
2018-01-22T18:12:50.403Z,100687.97
2018-01-22T18:15:18.947Z,100690.45
2018-01-22T18:17:47.613Z,100697.13
2018-01-22T18:20:16.448Z,100693.24
2018-01-22T18:22:44.900Z,100692.77
2018-01-22T18:25:13.517Z,100689.58
2018-01-22T18:27:42.571Z,100691.05
2018-01-22T18:30:11.577Z,100699.59
2018-01-22T18:32:40.253Z,100702.45
2018-01-22T18:35:08.793Z,100697.16
2018-01-22T18:37:38.255Z,100697.31
2018-01-22T18:40:07.047Z,100702.39
2018-01-22T18:42:35.656Z,100700.55
2018-01-22T18:45:04.418Z,100701.77
2018-01-22T18:47:33.204Z,100701.49
2018-01-22T18:50:01.970Z,100701.46
2018-01-22T18:52:30.562Z,100695.59
2018-01-22T18:54:59.057Z,100691.77
2018-01-22T18:57:27.820Z,100703.21
2018-01-22T18:59:56.418Z,100696.39
2018-01-22T19:02:25.191Z,100692.28
2018-01-22T19:04:53.702Z,100688.98
2018-01-22T19:07:22.594Z,100691.96
2018-01-22T19:09:51.184Z,100693.22
2018-01-22T19:12:19.724Z,100700.19
2018-01-22T19:14:48.345Z,100706.86
2018-01-22T19:17:16.900Z,100706.36
2018-01-22T19:19:45.376Z,100700.64
2018-01-22T19:22:14.072Z,100697.69
2018-01-22T19:24:42.784Z,100702.48
2018-01-22T19:27:11.476Z,100704.79
2018-01-22T19:29:40.320Z,100696.46
2018-01-22T19:32:09.341Z,100688.98
2018-01-22T19:34:38.116Z,100693.72
2018-01-22T19:37:06.749Z,100704.94
2018-01-22T19:39:35.258Z,100705.56
2018-01-22T19:42:04.319Z,100709.47
2018-01-22T19:44:32.917Z,100712.13
2018-01-22T19:47:01.572Z,100708.16
2018-01-22T19:49:30.258Z,100710.82
2018-01-22T19:51:58.917Z,100709.58
2018-01-22T19:54:27.790Z,100717.33
2018-01-22T19:57:01.523Z,100726.50
2018-01-22T19:59:33.507Z,100736.13
2018-01-22T20:02:03.142Z,100736.96
2018-01-22T20:04:32.264Z,100736.45
2018-01-22T20:07:01.059Z,100737.22
2018-01-22T20:09:29.857Z,100733.77
2018-01-22T20:11:59.348Z,100732.80
2018-01-22T20:14:28.090Z,100730.16
2018-01-22T20:16:56.715Z,100725.29
2018-01-22T20:19:25.392Z,100745.49
2018-01-22T20:21:54.545Z,100754.27
2018-01-22T20:24:23.212Z,100764.12
2018-01-22T20:26:52.076Z,100767.58
2018-01-22T20:29:21.168Z,100773.25
2018-01-22T20:31:49.803Z,100771.39
2018-01-22T20:34:18.965Z,100776.17
2018-01-22T20:36:47.616Z,100778.02
2018-01-22T20:39:16.195Z,100787.69
2018-01-22T20:41:44.836Z,100793.85
2018-01-22T20:44:13.569Z,100806.70
2018-01-22T20:46:42.200Z,100813.20
2018-01-22T20:49:11.080Z,100809.34
2018-01-22T20:51:39.897Z,100815.02
2018-01-22T20:54:08.853Z,100818.54
2018-01-22T20:56:37.769Z,100832.33
2018-01-22T20:59:06.837Z,100832.64
2018-01-22T21:01:35.522Z,100840.80
2018-01-22T21:04:04.601Z,100832.90
2018-01-22T21:06:33.328Z,100843.23
2018-01-22T21:09:05.537Z,100839.43
2018-01-22T21:11:34.114Z,100838.95
2018-01-22T21:14:02.926Z,100843.69
2018-01-22T21:16:31.598Z,100841.10
2018-01-22T21:19:00.195Z,100846.84
2018-01-22T21:21:29.006Z,100844.16
2018-01-22T21:23:57.551Z,100842.85
2018-01-22T21:26:26.392Z,100850.48
2018-01-22T21:28:54.990Z,100847.01
2018-01-22T21:31:23.588Z,100850.80
2018-01-22T21:33:52.285Z,100849.92
2018-01-22T21:36:21.011Z,100848.99
2018-01-22T21:38:49.559Z,100850.90
2018-01-22T21:41:18.586Z,100848.77
2018-01-22T21:43:48.238Z,100856.45
2018-01-22T21:46:16.812Z,100861.68
2018-01-22T21:48:45.580Z,100867.15
2018-01-22T21:51:14.244Z,100876.73
2018-01-22T21:53:42.876Z,100878.55
2018-01-22T21:56:11.712Z,100881.55
2018-01-22T21:58:40.501Z,100884.58
2018-01-22T22:01:09.393Z,100894.69
2018-01-22T22:03:39.725Z,100900.44
2018-01-22T22:06:08.515Z,100903.52
2018-01-22T22:08:37.194Z,100897.50
2018-01-22T22:11:05.740Z,100899.19
2018-01-22T22:13:35.456Z,100903.93
2018-01-22T22:16:04.208Z,100897.39
2018-01-22T22:18:33.085Z,100906.05
2018-01-22T22:21:01.816Z,100903.23
2018-01-22T22:23:30.380Z,100905.80
2018-01-22T22:25:59.165Z,100906.36
2018-01-22T22:28:28.152Z,100912.19
2018-01-22T22:30:56.926Z,100914.34
2018-01-22T22:33:25.595Z,100921.77
2018-01-22T22:35:54.220Z,100929.39
2018-01-22T22:38:22.797Z,100935.47
2018-01-22T22:40:51.546Z,100938.95
2018-01-22T22:43:20.337Z,100944.30
2018-01-22T22:45:49.469Z,100944.64
2018-01-22T22:48:17.987Z,100954.26
2018-01-22T22:50:46.624Z,100948.59
2018-01-22T22:53:15.146Z,100949.58
2018-01-22T22:55:43.749Z,100943.84
2018-01-22T22:58:12.370Z,100949.19
2018-01-22T23:00:42.247Z,100955.75
2018-01-22T23:03:10.739Z,100947.34
2018-01-22T23:05:39.544Z,100956.36
2018-01-22T23:08:08.077Z,100958.70
2018-01-22T23:10:36.912Z,100965.52
2018-01-22T23:13:05.684Z,100973.03
2018-01-22T23:15:34.444Z,100974.50
2018-01-22T23:18:03.207Z,100977.11
2018-01-22T23:20:31.936Z,100982.72
2018-01-22T23:23:00.485Z,100981.95
2018-01-22T23:25:29.325Z,100991.58
2018-01-22T23:27:57.966Z,100982.45
2018-01-22T23:30:26.618Z,100991.64
2018-01-22T23:32:55.485Z,100999.17
2018-01-22T23:35:24.545Z,101006.34
2018-01-22T23:37:53.348Z,101007.03
2018-01-22T23:40:21.913Z,101016.36
2018-01-22T23:42:50.956Z,101010.09
2018-01-22T23:45:19.540Z,101009.02
2018-01-22T23:47:48.097Z,101010.78
2018-01-22T23:50:16.755Z,101015.63
2018-01-22T23:52:45.562Z,101022.12
2018-01-22T23:55:14.357Z,101016.69
2018-01-22T23:57:42.907Z,101021.09
